createdAt,value
2016-08-24T00:00:49.770Z,99.99
2016-08-24T00:01:49.739Z,99.99
2016-08-24T00:02:49.727Z,99.99
2016-08-24T00:03:49.740Z,99.99
2016-08-24T00:04:49.736Z,99.99
2016-08-24T00:05:49.746Z,99.99
2016-08-24T00:06:49.781Z,99.99
2016-08-24T00:07:49.767Z,99.99
2016-08-24T00:08:49.709Z,99.99
2016-08-24T00:09:49.730Z,99.99
2016-08-24T00:10:49.736Z,99.99
2016-08-24T00:11:49.713Z,99.99
2016-08-24T00:12:50.383Z,99.99
2016-08-24T00:13:49.715Z,99.99
2016-08-24T00:14:49.741Z,99.99
2016-08-24T00:15:49.775Z,99.99
2016-08-24T00:16:49.745Z,99.99
2016-08-24T00:17:49.741Z,99.99
2016-08-24T00:18:49.745Z,99.99
2016-08-24T00:19:49.742Z,99.99
2016-08-24T00:20:49.748Z,99.99
2016-08-24T00:21:49.741Z,99.99
2016-08-24T00:22:49.758Z,99.99
2016-08-24T00:23:49.761Z,99.99
2016-08-24T00:24:49.735Z,99.99
2016-08-24T00:25:49.740Z,99.99
2016-08-24T00:26:49.757Z,99.99
2016-08-24T00:27:49.792Z,99.99
2016-08-24T00:28:49.732Z,99.99
2016-08-24T00:29:49.750Z,99.99
2016-08-24T00:30:49.751Z,99.99
2016-08-24T00:31:49.748Z,99.99
2016-08-24T00:32:49.745Z,99.99
2016-08-24T00:33:49.740Z,99.99
2016-08-24T00:34:49.745Z,99.99
2016-08-24T00:35:49.757Z,99.99
2016-08-24T00:36:49.745Z,99.99
2016-08-24T00:37:49.740Z,99.99
2016-08-24T00:38:49.757Z,99.99
2016-08-24T00:39:49.739Z,99.99
2016-08-24T00:40:49.773Z,99.99
2016-08-24T00:41:49.755Z,99.99
2016-08-24T00:42:49.759Z,99.99
2016-08-24T00:43:49.746Z,99.99
2016-08-24T00:44:49.771Z,99.99
2016-08-24T00:45:49.752Z,99.99
2016-08-24T00:46:49.757Z,99.99
2016-08-24T00:47:49.760Z,99.99
2016-08-24T00:48:49.773Z,99.99
2016-08-24T00:49:49.774Z,99.99
2016-08-24T00:50:49.771Z,99.99
2016-08-24T00:51:50.062Z,99.99
2016-08-24T00:52:49.764Z,99.99
2016-08-24T00:53:49.769Z,99.99
2016-08-24T00:54:49.773Z,99.99
2016-08-24T00:55:49.769Z,99.99
2016-08-24T00:56:49.790Z,99.99
2016-08-24T00:57:49.781Z,99.99
2016-08-24T00:58:49.790Z,99.99
2016-08-24T00:59:49.758Z,99.99
2016-08-24T01:00:49.783Z,99.99
2016-08-24T01:01:49.770Z,99.99
2016-08-24T01:02:49.834Z,99.99
2016-08-24T01:03:50.123Z,99.99
2016-08-24T01:04:49.777Z,99.99
2016-08-24T01:05:49.783Z,99.99
2016-08-24T01:06:49.791Z,99.99
2016-08-24T01:07:49.797Z,99.99
2016-08-24T01:08:49.774Z,99.99
2016-08-24T01:09:49.818Z,99.99
2016-08-24T01:10:49.793Z,99.99
2016-08-24T01:11:49.790Z,99.99
2016-08-24T01:12:49.909Z,99.99
2016-08-24T01:13:49.770Z,99.99
2016-08-24T01:14:49.803Z,99.99
2016-08-24T01:15:49.807Z,99.99
2016-08-24T01:16:49.792Z,99.99
2016-08-24T01:17:49.821Z,99.99
2016-08-24T01:18:50.726Z,99.99
2016-08-24T01:19:49.796Z,99.99
2016-08-24T01:20:49.803Z,99.99
2016-08-24T01:21:49.798Z,99.99
2016-08-24T01:22:49.825Z,99.99
2016-08-24T01:23:49.824Z,99.99
2016-08-24T01:24:50.004Z,99.99
2016-08-24T01:25:49.826Z,99.99
2016-08-24T01:26:49.810Z,99.99
2016-08-24T01:27:50.028Z,99.99
2016-08-24T01:28:49.806Z,99.99
2016-08-24T01:29:49.802Z,99.99
2016-08-24T01:30:49.838Z,99.99
2016-08-24T01:31:49.820Z,99.99
2016-08-24T01:32:49.814Z,99.99
2016-08-24T01:33:50.914Z,99.99
2016-08-24T01:34:49.795Z,99.99
2016-08-24T01:35:49.795Z,99.99
2016-08-24T01:36:49.835Z,99.99
2016-08-24T01:37:49.805Z,99.99
2016-08-24T01:38:49.814Z,99.99
2016-08-24T01:39:50.054Z,99.99
2016-08-24T01:40:49.811Z,99.99
2016-08-24T01:41:49.809Z,99.99
2016-08-24T01:42:50.033Z,99.99
2016-08-24T01:43:49.807Z,99.99
2016-08-24T01:44:49.815Z,99.99
2016-08-24T01:45:50.763Z,99.99
2016-08-24T01:46:49.821Z,99.99
2016-08-24T01:47:49.821Z,99.99
2016-08-24T01:48:49.870Z,99.99
2016-08-24T01:49:49.822Z,99.99
2016-08-24T01:50:49.833Z,99.99
2016-08-24T01:51:50.684Z,99.99
2016-08-24T01:52:49.822Z,99.99
2016-08-24T01:53:49.806Z,99.99
2016-08-24T01:54:49.875Z,99.99
2016-08-24T01:55:49.839Z,99.99
2016-08-24T01:56:49.822Z,99.99
2016-08-24T01:57:49.836Z,99.99
2016-08-24T01:58:49.839Z,99.99
2016-08-24T01:59:49.838Z,99.99
2016-08-24T02:00:49.857Z,99.99
2016-08-24T02:01:49.822Z,99.99
2016-08-24T02:02:49.841Z,99.99
2016-08-24T02:03:51.082Z,99.99
2016-08-24T02:04:49.859Z,99.99
2016-08-24T02:05:49.851Z,99.99
2016-08-24T02:06:49.838Z,99.99
2016-08-24T02:07:49.845Z,99.99
2016-08-24T02:08:49.843Z,99.99
2016-08-24T02:09:50.129Z,99.99
2016-08-24T02:10:49.866Z,99.99
2016-08-24T02:11:49.852Z,99.99
2016-08-24T02:12:49.837Z,99.99
2016-08-24T02:13:49.854Z,99.99
2016-08-24T02:14:49.851Z,99.99
2016-08-24T02:15:49.847Z,99.99
2016-08-24T02:16:49.838Z,99.99
2016-08-24T02:17:49.837Z,99.99
2016-08-24T02:18:49.851Z,99.99
2016-08-24T02:19:49.844Z,99.99
2016-08-24T02:20:49.851Z,99.99
2016-08-24T02:21:49.872Z,99.99
2016-08-24T02:22:49.855Z,99.99
2016-08-24T02:23:49.855Z,99.99
2016-08-24T02:24:50.039Z,99.99
2016-08-24T02:25:49.853Z,99.99
2016-08-24T02:26:49.850Z,99.99
2016-08-24T02:27:49.883Z,99.99
2016-08-24T02:28:49.857Z,99.99
2016-08-24T02:29:49.838Z,99.99
2016-08-24T02:30:49.859Z,99.99
2016-08-24T02:31:49.853Z,99.99
2016-08-24T02:32:49.918Z,99.99
2016-08-24T02:33:49.854Z,99.99
2016-08-24T02:34:49.877Z,99.99
2016-08-24T02:35:49.867Z,99.99
2016-08-24T02:36:49.885Z,99.99
2016-08-24T02:37:49.863Z,99.99
2016-08-24T02:38:49.876Z,99.99
2016-08-24T02:39:50.359Z,99.99
2016-08-24T02:40:49.895Z,99.99
2016-08-24T02:41:49.903Z,99.99
2016-08-24T02:42:49.958Z,99.99
2016-08-24T02:43:49.867Z,99.99
2016-08-24T02:44:49.897Z,99.99
2016-08-24T02:45:49.871Z,99.99
2016-08-24T02:46:49.897Z,99.99
2016-08-24T02:47:49.892Z,99.99
2016-08-24T02:48:50.534Z,99.99
2016-08-24T02:49:49.906Z,99.99
2016-08-24T02:50:49.898Z,99.99
2016-08-24T02:51:49.889Z,99.99
2016-08-24T02:52:49.883Z,99.99
2016-08-24T02:53:49.873Z,99.99
2016-08-24T02:54:49.885Z,99.99
2016-08-24T02:55:49.902Z,99.99
2016-08-24T02:56:49.880Z,99.99
2016-08-24T02:57:49.872Z,99.99
2016-08-24T02:58:49.892Z,99.99
2016-08-24T02:59:49.905Z,99.99
2016-08-24T03:00:51.025Z,99.99
2016-08-24T03:01:49.885Z,99.99
2016-08-24T03:02:49.887Z,99.99
2016-08-24T03:03:50.291Z,99.99
2016-08-24T03:04:49.886Z,99.99
2016-08-24T03:05:49.898Z,99.99
2016-08-24T03:06:50.059Z,99.99
2016-08-24T03:07:49.889Z,99.99
2016-08-24T03:08:49.900Z,99.99
2016-08-24T03:09:50.024Z,99.99
2016-08-24T03:10:49.912Z,99.99
2016-08-24T03:11:49.891Z,99.99
2016-08-24T03:12:49.914Z,99.99
2016-08-24T03:13:49.905Z,99.99
2016-08-24T03:14:49.886Z,99.99
2016-08-24T03:15:50.082Z,99.99
2016-08-24T03:16:49.881Z,99.99
2016-08-24T03:17:49.905Z,99.99
2016-08-24T03:18:49.887Z,99.99
2016-08-24T03:19:49.916Z,99.99
2016-08-24T03:20:49.910Z,99.99
2016-08-24T03:21:49.916Z,99.99
2016-08-24T03:22:49.938Z,99.99
2016-08-24T03:23:49.886Z,99.99
2016-08-24T03:24:49.901Z,99.99
2016-08-24T03:25:49.914Z,99.99
2016-08-24T03:26:49.902Z,99.99
2016-08-24T03:27:49.910Z,99.99
2016-08-24T03:28:49.915Z,99.99
2016-08-24T03:29:49.899Z,99.99
2016-08-24T03:30:49.904Z,99.99
2016-08-24T03:31:49.915Z,99.99
2016-08-24T03:32:49.931Z,99.99
2016-08-24T03:33:49.923Z,99.99
2016-08-24T03:34:49.915Z,99.99
2016-08-24T03:35:49.921Z,99.99
2016-08-24T03:36:49.917Z,99.99
2016-08-24T03:37:49.920Z,99.99
2016-08-24T03:38:49.926Z,99.99
2016-08-24T03:39:49.904Z,99.99
2016-08-24T03:40:49.994Z,99.99
2016-08-24T03:41:49.908Z,99.99
2016-08-24T03:42:49.914Z,99.99
2016-08-24T03:43:49.960Z,99.99
2016-08-24T03:44:49.918Z,99.99
2016-08-24T03:45:49.934Z,99.99
2016-08-24T03:46:49.933Z,99.99
2016-08-24T03:47:49.918Z,99.99
2016-08-24T03:48:49.922Z,99.99
2016-08-24T03:49:49.923Z,99.99
2016-08-24T03:50:49.940Z,99.99
2016-08-24T03:51:49.930Z,99.99
2016-08-24T03:52:49.928Z,99.99
2016-08-24T03:53:49.920Z,99.99
2016-08-24T03:54:49.936Z,99.99
2016-08-24T03:55:49.930Z,99.99
2016-08-24T03:56:49.960Z,99.99
2016-08-24T03:57:49.993Z,99.99
2016-08-24T03:58:49.948Z,99.99
2016-08-24T03:59:49.919Z,99.99
2016-08-24T04:00:49.947Z,99.99
2016-08-24T04:01:49.951Z,99.99
2016-08-24T04:02:49.930Z,99.99
2016-08-24T04:03:49.951Z,99.99
2016-08-24T04:04:49.945Z,99.99
2016-08-24T04:05:49.937Z,99.99
2016-08-24T04:06:49.926Z,99.99
2016-08-24T04:07:49.938Z,99.99
2016-08-24T04:08:49.977Z,99.99
2016-08-24T04:09:49.936Z,99.99
2016-08-24T04:10:49.959Z,99.99
2016-08-24T04:11:49.960Z,99.99
2016-08-24T04:12:49.977Z,99.99
2016-08-24T04:13:49.950Z,99.99
2016-08-24T04:14:50.012Z,99.99
2016-08-24T04:15:49.993Z,99.99
2016-08-24T04:16:49.964Z,99.99
2016-08-24T04:17:49.969Z,99.99
2016-08-24T04:18:49.950Z,99.99
2016-08-24T04:19:49.983Z,99.99
2016-08-24T04:20:49.974Z,99.99
2016-08-24T04:21:50.070Z,99.99
2016-08-24T04:22:49.978Z,99.99
2016-08-24T04:23:49.968Z,99.99
2016-08-24T04:24:49.945Z,99.99
2016-08-24T04:25:49.967Z,99.99
2016-08-24T04:26:49.975Z,99.99
2016-08-24T04:27:49.951Z,99.99
2016-08-24T04:28:50.018Z,99.99
2016-08-24T04:29:49.964Z,99.99
2016-08-24T04:30:50.004Z,99.99
2016-08-24T04:31:49.981Z,99.99
2016-08-24T04:32:49.972Z,99.99
2016-08-24T04:33:49.977Z,99.99
2016-08-24T04:34:49.968Z,99.99
2016-08-24T04:35:49.987Z,99.99
2016-08-24T04:36:50.040Z,99.99
2016-08-24T04:37:49.973Z,99.99
2016-08-24T04:38:49.989Z,99.99
2016-08-24T04:39:49.971Z,99.99
2016-08-24T04:40:49.968Z,99.99
2016-08-24T04:41:49.981Z,99.99
2016-08-24T04:43:15.324Z,99.99
2016-08-24T04:44:39.765Z,99.99
2016-08-24T04:46:03.772Z,99.99
2016-08-24T04:47:28.327Z,99.99
2016-08-24T04:48:50.952Z,99.99
2016-08-24T04:50:13.183Z,99.99
2016-08-24T04:51:35.097Z,99.99
2016-08-24T04:52:57.638Z,99.99
2016-08-24T04:54:20.036Z,99.99
2016-08-24T04:55:42.372Z,99.99
2016-08-24T04:57:04.283Z,99.99
2016-08-24T04:57:52.678Z,99.99
2016-08-24T04:58:52.712Z,99.99
2016-08-24T04:59:52.665Z,99.99
2016-08-24T05:00:52.713Z,99.99
2016-08-24T05:01:52.849Z,99.99
2016-08-24T05:02:52.667Z,99.99
2016-08-24T05:03:52.665Z,99.99
2016-08-24T05:04:52.700Z,99.99
2016-08-24T05:05:52.692Z,99.99
2016-08-24T05:06:52.686Z,99.99
2016-08-24T05:07:52.688Z,99.99
2016-08-24T05:08:52.730Z,99.99
2016-08-24T05:09:52.732Z,99.99
2016-08-24T05:10:52.666Z,99.99
2016-08-24T05:11:52.718Z,99.99
2016-08-24T05:12:52.699Z,99.99
2016-08-24T05:13:52.697Z,99.99
2016-08-24T05:14:52.685Z,99.99
2016-08-24T05:15:52.701Z,99.99
2016-08-24T05:16:52.698Z,99.99
2016-08-24T05:17:52.689Z,99.99
2016-08-24T05:18:52.700Z,99.99
2016-08-24T05:19:52.684Z,99.99
2016-08-24T05:20:52.685Z,99.99
2016-08-24T05:21:52.749Z,99.99
2016-08-24T05:22:52.699Z,99.99
2016-08-24T05:23:53.329Z,99.99
2016-08-24T05:24:52.703Z,99.99
2016-08-24T05:25:52.695Z,99.99
2016-08-24T05:26:52.706Z,99.99
2016-08-24T05:27:52.695Z,99.99
2016-08-24T05:28:52.691Z,99.99
2016-08-24T05:29:52.701Z,99.99
2016-08-24T05:30:52.704Z,99.99
2016-08-24T05:31:52.696Z,99.99
2016-08-24T05:32:52.705Z,99.99
2016-08-24T05:33:52.702Z,99.99
2016-08-24T05:35:17.810Z,99.99
2016-08-24T05:36:41.904Z,99.99
2016-08-24T05:38:05.265Z,99.99
2016-08-24T05:39:28.700Z,99.99
2016-08-24T05:40:52.271Z,99.99
2016-08-24T05:42:14.873Z,99.99
2016-08-24T05:43:38.697Z,99.99
2016-08-24T05:45:00.202Z,99.99
2016-08-24T05:46:21.656Z,99.99
2016-08-24T05:47:46.573Z,99.99
2016-08-24T05:49:08.234Z,99.99
2016-08-24T05:49:43.759Z,99.99
2016-08-24T05:50:43.778Z,99.99
2016-08-24T05:51:43.761Z,99.99
2016-08-24T05:52:43.760Z,99.99
2016-08-24T05:53:43.767Z,99.99
2016-08-24T05:54:43.776Z,99.99
2016-08-24T05:55:43.750Z,99.99
2016-08-24T05:56:43.764Z,99.99
2016-08-24T05:57:43.766Z,99.99
2016-08-24T05:58:43.758Z,99.99
2016-08-24T05:59:43.777Z,99.99
2016-08-24T06:00:43.776Z,99.99
2016-08-24T06:01:43.750Z,99.99
2016-08-24T06:02:43.947Z,99.99
2016-08-24T06:03:43.760Z,99.99
2016-08-24T06:04:43.777Z,99.99
2016-08-24T06:05:43.773Z,99.99
2016-08-24T06:06:43.780Z,99.99
2016-08-24T06:07:43.769Z,99.99
2016-08-24T06:08:43.763Z,99.99
2016-08-24T06:09:43.769Z,99.99
2016-08-24T06:10:43.790Z,99.99
2016-08-24T06:11:43.790Z,99.99
2016-08-24T06:12:43.777Z,99.99
2016-08-24T06:13:43.812Z,99.99
2016-08-24T06:14:43.777Z,99.99
2016-08-24T06:15:43.795Z,99.99
2016-08-24T06:16:43.802Z,99.99
2016-08-24T06:17:43.827Z,99.99
2016-08-24T06:18:43.792Z,99.99
2016-08-24T06:19:43.778Z,99.99
2016-08-24T06:20:43.838Z,99.99
2016-08-24T06:21:43.807Z,99.99
2016-08-24T06:22:43.791Z,99.99
2016-08-24T06:23:43.796Z,99.99
2016-08-24T06:24:43.777Z,99.99
2016-08-24T06:25:43.768Z,99.99
2016-08-24T06:26:43.792Z,99.99
2016-08-24T06:27:43.795Z,99.99
2016-08-24T06:28:43.838Z,99.99
2016-08-24T06:29:43.797Z,99.99
2016-08-24T06:30:43.797Z,99.99
2016-08-24T06:31:43.792Z,99.99
2016-08-24T06:32:43.819Z,99.99
2016-08-24T06:33:43.836Z,99.99
2016-08-24T06:34:43.879Z,99.99
2016-08-24T06:35:43.821Z,99.99
2016-08-24T06:36:43.822Z,99.99
2016-08-24T06:37:43.794Z,99.99
2016-08-24T06:38:43.808Z,99.99
2016-08-24T06:39:43.798Z,99.99
2016-08-24T06:40:43.827Z,99.99
2016-08-24T06:41:43.806Z,99.99
2016-08-24T06:42:43.813Z,99.99
2016-08-24T06:43:43.807Z,99.99
2016-08-24T06:44:43.830Z,99.99
2016-08-24T06:45:43.809Z,99.99
2016-08-24T06:46:43.825Z,99.99
2016-08-24T06:47:43.808Z,99.99
2016-08-24T06:48:43.814Z,99.99
2016-08-24T06:49:43.813Z,99.99
2016-08-24T06:50:43.791Z,99.99
2016-08-24T06:51:43.825Z,99.99
2016-08-24T06:52:43.839Z,99.99
2016-08-24T06:53:43.824Z,99.99
2016-08-24T06:54:43.822Z,99.99
2016-08-24T06:55:43.839Z,99.99
2016-08-24T06:56:43.857Z,99.99
2016-08-24T06:57:43.841Z,99.99
2016-08-24T06:58:43.825Z,99.99
2016-08-24T06:59:43.827Z,99.99
2016-08-24T07:00:43.853Z,99.99
2016-08-24T07:01:43.827Z,99.99
2016-08-24T07:02:43.846Z,99.99
2016-08-24T07:03:43.898Z,99.99
2016-08-24T07:04:43.934Z,99.99
2016-08-24T07:05:43.823Z,99.99
2016-08-24T07:06:43.843Z,99.99
2016-08-24T07:07:44.025Z,99.99
2016-08-24T07:08:43.830Z,99.99
2016-08-24T07:09:43.821Z,99.99
2016-08-24T07:10:43.812Z,99.99
2016-08-24T07:11:43.840Z,99.99
2016-08-24T07:12:43.839Z,99.99
2016-08-24T07:13:43.861Z,99.99
2016-08-24T07:14:43.837Z,99.99
2016-08-24T07:15:43.845Z,99.99
2016-08-24T07:16:43.846Z,99.99
2016-08-24T07:17:43.846Z,99.99
2016-08-24T07:18:43.839Z,99.99
2016-08-24T07:19:43.846Z,99.99
2016-08-24T07:20:43.849Z,99.99
2016-08-24T07:21:43.849Z,99.99
2016-08-24T07:22:43.902Z,99.99
2016-08-24T07:23:43.861Z,99.99
2016-08-24T07:24:43.859Z,99.99
2016-08-24T07:25:43.841Z,99.99
2016-08-24T07:26:43.867Z,99.99
2016-08-24T07:27:43.840Z,99.99
2016-08-24T07:28:43.853Z,99.99
2016-08-24T07:29:43.924Z,99.99
2016-08-24T07:30:43.858Z,99.99
2016-08-24T07:31:43.909Z,99.99
2016-08-24T07:32:43.908Z,99.99
2016-08-24T07:33:43.891Z,99.99
2016-08-24T07:34:43.901Z,99.99
2016-08-24T07:35:43.870Z,99.99
2016-08-24T07:36:43.870Z,99.99
2016-08-24T07:37:43.885Z,99.99
2016-08-24T07:38:43.859Z,99.99
2016-08-24T07:39:43.876Z,99.99
2016-08-24T07:40:43.872Z,99.99
2016-08-24T07:41:43.872Z,99.99
2016-08-24T07:42:43.871Z,99.99
2016-08-24T07:43:43.861Z,99.99
2016-08-24T07:44:43.901Z,99.99
2016-08-24T07:45:43.872Z,99.99
2016-08-24T07:46:44.546Z,99.99
2016-08-24T07:47:43.885Z,99.99
2016-08-24T07:48:43.880Z,99.99
2016-08-24T07:49:43.869Z,99.99
2016-08-24T07:50:43.886Z,99.99
2016-08-24T07:51:43.886Z,99.99
2016-08-24T07:52:43.987Z,99.26
2016-08-24T07:53:43.902Z,99.16
2016-08-24T07:54:43.879Z,99.99
2016-08-24T07:55:43.892Z,99.94
2016-08-24T07:56:43.933Z,99.02
2016-08-24T07:57:43.873Z,99.41
2016-08-24T07:58:43.892Z,99.99
2016-08-24T07:59:43.885Z,99.41
2016-08-24T08:00:43.892Z,95.25
2016-08-24T08:01:43.882Z,94.96
2016-08-24T08:02:43.889Z,94.04
2016-08-24T08:03:44.514Z,93.37
2016-08-24T08:04:43.945Z,95.54
2016-08-24T08:05:43.882Z,94.53
2016-08-24T08:06:43.933Z,95.2
2016-08-24T08:07:43.895Z,95.4
2016-08-24T08:08:43.904Z,93.75
2016-08-24T08:09:43.878Z,91.43
2016-08-24T08:10:43.896Z,91.48
2016-08-24T08:11:43.935Z,91.28
2016-08-24T08:12:43.928Z,92.16
2016-08-24T08:13:43.902Z,92.54
2016-08-24T08:14:43.889Z,88.39
2016-08-24T08:15:43.913Z,88.48
2016-08-24T08:16:43.904Z,87.65
2016-08-24T08:17:43.916Z,87.65
2016-08-24T08:18:43.918Z,86.4
2016-08-24T08:19:43.904Z,88.71
2016-08-24T08:20:43.940Z,85.42
2016-08-24T08:21:43.939Z,85.42
2016-08-24T08:22:44.065Z,84.46
2016-08-24T08:23:43.936Z,84.31
2016-08-24T08:24:44.323Z,85.47
2016-08-24T08:25:43.918Z,85.08
2016-08-24T08:26:43.943Z,83.53
2016-08-24T08:27:44.017Z,85.96
2016-08-24T08:28:43.923Z,86.24
2016-08-24T08:29:43.919Z,86.54
2016-08-24T08:30:43.923Z,88.67
2016-08-24T08:31:43.930Z,86.34
2016-08-24T08:32:43.938Z,86.05
2016-08-24T08:33:43.981Z,86
2016-08-24T08:34:43.965Z,85.41
2016-08-24T08:35:43.958Z,83.38
2016-08-24T08:36:43.906Z,83.67
2016-08-24T08:37:43.937Z,85.13
2016-08-24T08:38:43.936Z,85.9
2016-08-24T08:39:43.940Z,86.38
2016-08-24T08:40:43.934Z,84.74
2016-08-24T08:41:43.950Z,83.09
2016-08-24T08:42:43.949Z,83.28
2016-08-24T08:43:43.942Z,84.1
2016-08-24T08:44:44.006Z,82.51
2016-08-24T08:45:43.959Z,84
2016-08-24T08:46:43.938Z,84.78
2016-08-24T08:47:43.969Z,83.72
2016-08-24T08:48:43.944Z,84.68
2016-08-24T08:49:43.923Z,83.33
2016-08-24T08:50:43.951Z,82.26
2016-08-24T08:51:43.986Z,81.77
2016-08-24T08:52:43.985Z,82.45
2016-08-24T08:53:43.951Z,82.65
2016-08-24T08:54:43.936Z,83.62
2016-08-24T08:55:43.964Z,82.26
2016-08-24T08:56:43.941Z,82.3
2016-08-24T08:57:43.952Z,81.2
2016-08-24T08:58:43.934Z,81.91
2016-08-24T08:59:43.951Z,82.4
2016-08-24T09:00:43.943Z,83.17
2016-08-24T09:01:43.952Z,82.69
2016-08-24T09:02:43.971Z,80.65
2016-08-24T09:03:43.956Z,80.36
2016-08-24T09:04:43.978Z,78.81
2016-08-24T09:05:43.958Z,80.17
2016-08-24T09:06:43.950Z,80.65
2016-08-24T09:07:43.964Z,81.23
2016-08-24T09:08:43.963Z,81.23
2016-08-24T09:09:43.970Z,81.33
2016-08-24T09:10:43.953Z,81.23
2016-08-24T09:11:43.971Z,78.81
2016-08-24T09:12:43.959Z,79.24
2016-08-24T09:13:43.967Z,78.23
2016-08-24T09:14:43.949Z,78.36
2016-08-24T09:15:43.971Z,79.43
2016-08-24T09:16:43.962Z,77.11
2016-08-24T09:17:43.948Z,77.39
2016-08-24T09:18:43.970Z,78.27
2016-08-24T09:19:43.970Z,77.49
2016-08-24T09:20:43.972Z,76.23
2016-08-24T09:21:43.976Z,77.29
2016-08-24T09:22:44.012Z,76.27
2016-08-24T09:23:43.992Z,78.07
2016-08-24T09:24:43.976Z,77.72
2016-08-24T09:25:43.974Z,77.62
2016-08-24T09:26:43.972Z,77.34
2016-08-24T09:27:43.981Z,76.65
2016-08-24T09:28:44.011Z,75.68
2016-08-24T09:29:43.990Z,75.2
2016-08-24T09:30:44.011Z,75.59
2016-08-24T09:31:43.976Z,74.65
2016-08-24T09:32:43.998Z,74.95
2016-08-24T09:33:44.003Z,75.14
2016-08-24T09:34:44.003Z,76.01
2016-08-24T09:35:44.005Z,76.01
2016-08-24T09:36:43.995Z,76.98
2016-08-24T09:37:44.005Z,75.43
2016-08-24T09:38:44.011Z,75.04
2016-08-24T09:39:44.029Z,73.39
2016-08-24T09:40:44.005Z,74.01
2016-08-24T09:41:44.025Z,75.85
2016-08-24T09:42:44.089Z,73.39
2016-08-24T09:43:44.029Z,73.72
2016-08-24T09:44:44.042Z,73.72
2016-08-24T09:45:44.011Z,75.47
2016-08-24T09:46:44.006Z,74.11
2016-08-24T09:47:44.007Z,75.18
2016-08-24T09:48:44.019Z,75.85
2016-08-24T09:49:44.015Z,74.3
2016-08-24T09:50:44.021Z,73.33
2016-08-24T09:51:44.019Z,75.57
2016-08-24T09:52:44.037Z,74.69
2016-08-24T09:53:44.017Z,73.18
2016-08-24T09:54:43.988Z,71.81
2016-08-24T09:55:44.001Z,71.03
2016-08-24T09:56:44.004Z,71.1
2016-08-24T09:57:44.038Z,71.13
2016-08-24T09:58:44.000Z,71.68
2016-08-24T09:59:43.997Z,72.2
2016-08-24T10:00:44.037Z,72.3
2016-08-24T10:01:44.018Z,72.49
2016-08-24T10:02:44.015Z,72.49
2016-08-24T10:03:44.035Z,74.05
2016-08-24T10:04:44.041Z,73.75
2016-08-24T10:05:44.016Z,73.56
2016-08-24T10:06:44.024Z,73.66
2016-08-24T10:07:44.018Z,73.66
2016-08-24T10:08:44.031Z,71.91
2016-08-24T10:09:44.029Z,70.2
2016-08-24T10:10:44.030Z,71.66
2016-08-24T10:11:44.067Z,70.49
2016-08-24T10:12:44.059Z,71.56
2016-08-24T10:13:44.058Z,71.56
2016-08-24T10:14:44.020Z,71.36
2016-08-24T10:15:44.032Z,70.49
2016-08-24T10:16:44.035Z,70.58
2016-08-24T10:17:44.042Z,72.33
2016-08-24T10:18:44.107Z,72.27
2016-08-24T10:19:44.035Z,72.27
2016-08-24T10:20:44.047Z,69.74
2016-08-24T10:21:44.055Z,69.45
2016-08-24T10:22:44.031Z,69.16
2016-08-24T10:23:44.052Z,68.48
2016-08-24T10:24:44.058Z,67.31
2016-08-24T10:25:44.043Z,68.57
2016-08-24T10:26:44.213Z,69.16
2016-08-24T10:27:44.106Z,69.94
2016-08-24T10:28:44.575Z,69.16
2016-08-24T10:29:44.055Z,68.61
2016-08-24T10:30:44.252Z,67.25
2016-08-24T10:31:44.055Z,67.15
2016-08-24T10:32:44.034Z,67.05
2016-08-24T10:33:44.040Z,68.41
2016-08-24T10:34:44.045Z,69.39
2016-08-24T10:35:44.055Z,68.71
2016-08-24T10:36:44.062Z,66.66
2016-08-24T10:37:44.051Z,65.79
2016-08-24T10:38:44.337Z,66.08
2016-08-24T10:39:44.065Z,65.69
2016-08-24T10:40:44.059Z,64.62
2016-08-24T10:41:44.047Z,63.55
2016-08-24T10:42:44.067Z,64.72
2016-08-24T10:43:44.058Z,64.94
2016-08-24T10:44:46.203Z,64.91
2016-08-24T10:45:44.088Z,65.04
2016-08-24T10:46:44.711Z,65.92
2016-08-24T10:47:44.089Z,65.3
2016-08-24T10:48:44.050Z,64.91
2016-08-24T10:49:44.077Z,65.62
2016-08-24T10:50:44.082Z,65.53
2016-08-24T10:51:44.056Z,66.79
2016-08-24T10:52:44.066Z,65.14
2016-08-24T10:53:44.495Z,65.82
2016-08-24T10:54:44.092Z,66.31
2016-08-24T10:55:44.057Z,64.07
2016-08-24T10:56:44.064Z,63.29
2016-08-24T10:57:44.516Z,65.62
2016-08-24T10:58:44.705Z,64.75
2016-08-24T10:59:44.083Z,65.17
2016-08-24T11:00:44.096Z,64.65
2016-08-24T11:01:44.112Z,60.78
2016-08-24T11:02:44.400Z,60.85
2016-08-24T11:03:44.882Z,61.54
2016-08-24T11:04:44.075Z,62.22
2016-08-24T11:05:44.076Z,63.68
2016-08-24T11:06:44.075Z,63.42
2016-08-24T11:07:44.095Z,62.12
2016-08-24T11:08:44.079Z,62.83
2016-08-24T11:09:44.065Z,62.44
2016-08-24T11:10:44.954Z,63.39
2016-08-24T11:11:44.166Z,62.25
2016-08-24T11:12:44.171Z,62.99
2016-08-24T11:13:44.102Z,62.44
2016-08-24T11:14:44.138Z,62.25
2016-08-24T11:15:44.170Z,62.15
2016-08-24T11:16:46.333Z,60.88
2016-08-24T11:17:44.107Z,60.49
2016-08-24T11:18:44.097Z,61.08
2016-08-24T11:19:44.127Z,61.96
2016-08-24T11:20:44.126Z,63.32
2016-08-24T11:21:44.101Z,64.2
2016-08-24T11:22:45.392Z,64.69
2016-08-24T11:23:44.123Z,64.97
2016-08-24T11:24:44.114Z,63.42
2016-08-24T11:25:46.331Z,62.35
2016-08-24T11:26:45.444Z,62.83
2016-08-24T11:27:44.287Z,60.88
2016-08-24T11:28:44.142Z,60.72
2016-08-24T11:29:47.679Z,62.38
2016-08-24T11:30:44.774Z,63.06
2016-08-24T11:32:45.115Z,61.6
2016-08-24T11:33:44.155Z,61.5
2016-08-24T11:34:44.102Z,61.69
2016-08-24T11:35:44.155Z,61.79
2016-08-24T11:36:44.162Z,61.69
2016-08-24T11:37:44.154Z,61.6
2016-08-24T11:38:44.684Z,61.21
2016-08-24T11:39:44.232Z,60.33
2016-08-24T11:40:46.200Z,60.23
2016-08-24T11:41:44.193Z,60.23
2016-08-24T11:42:45.254Z,60.72
2016-08-24T11:43:44.126Z,61.11
2016-08-24T11:44:44.175Z,60.13
2016-08-24T11:45:46.814Z,60.42
2016-08-24T11:46:44.140Z,59.87
2016-08-24T11:47:44.407Z,60.03
2016-08-24T11:48:45.340Z,61.11
2016-08-24T11:49:45.431Z,61.11
2016-08-24T11:50:44.984Z,59.58
2016-08-24T11:51:44.126Z,59.58
2016-08-24T11:52:46.021Z,57.24
2016-08-24T11:53:44.140Z,58.02
2016-08-24T11:54:44.438Z,57.73
2016-08-24T11:55:47.653Z,59.09
2016-08-24T11:56:44.550Z,60.36
2016-08-24T11:57:47.561Z,60.46
2016-08-24T11:58:47.187Z,58.99
2016-08-24T11:59:44.274Z,60.36
2016-08-24T12:00:44.559Z,59.22
2016-08-24T12:01:44.216Z,59.31
2016-08-24T12:02:44.143Z,59.41
2016-08-24T12:03:45.252Z,57.36
2016-08-24T12:04:45.464Z,58.24
2016-08-24T12:05:44.169Z,58.12
2016-08-24T12:06:44.187Z,56.2
2016-08-24T12:07:44.178Z,55.32
2016-08-24T12:08:44.205Z,55.32
2016-08-24T12:09:45.785Z,57.26
2016-08-24T12:10:46.032Z,58.44
2016-08-24T12:11:46.478Z,58.34
2016-08-24T12:12:44.251Z,58.14
2016-08-24T12:13:44.262Z,57.36
2016-08-24T12:14:44.238Z,57.17
2016-08-24T12:15:44.804Z,57.36
2016-08-24T12:16:44.165Z,57.56
2016-08-24T12:17:44.222Z,56.87
2016-08-24T12:18:44.196Z,56.2
2016-08-24T12:19:44.176Z,56.58
2016-08-24T12:20:44.191Z,56.97
2016-08-24T12:21:44.227Z,56.29
2016-08-24T12:22:44.209Z,54.73
2016-08-24T12:23:44.183Z,56
2016-08-24T12:24:44.210Z,54.63
2016-08-24T12:25:44.177Z,55.15
2016-08-24T12:26:44.182Z,56
2016-08-24T12:27:44.202Z,55.93
2016-08-24T12:28:44.165Z,56.9
2016-08-24T12:29:44.198Z,57.1
2016-08-24T12:30:44.752Z,56.32
2016-08-24T12:31:44.220Z,56.48
2016-08-24T12:32:44.176Z,57.49
2016-08-24T12:33:44.173Z,57.59
2016-08-24T12:34:44.226Z,56.22
2016-08-24T12:35:44.179Z,55.93
2016-08-24T12:36:44.225Z,55.73
2016-08-24T12:37:44.190Z,56.61
2016-08-24T12:38:44.190Z,54.85
2016-08-24T12:39:44.189Z,55.83
2016-08-24T12:40:44.197Z,55.08
2016-08-24T12:41:44.176Z,55.15
2016-08-24T12:42:44.206Z,55.24
2016-08-24T12:43:44.171Z,55.44
2016-08-24T12:44:44.240Z,55.44
2016-08-24T12:45:44.186Z,56.9
2016-08-24T12:46:44.219Z,57.32
2016-08-24T12:47:44.220Z,56.41
2016-08-24T12:48:44.225Z,56.41
2016-08-24T12:49:44.227Z,56.71
2016-08-24T12:50:44.205Z,55.73
2016-08-24T12:51:44.246Z,56.22
2016-08-24T12:52:44.232Z,55.96
2016-08-24T12:53:44.207Z,55.15
2016-08-24T12:54:44.246Z,55.76
2016-08-24T12:55:44.252Z,55.96
2016-08-24T12:56:44.225Z,55.73
2016-08-24T12:57:44.248Z,54
2016-08-24T12:58:44.225Z,54.75
2016-08-24T12:59:44.226Z,54.88
2016-08-24T13:00:44.238Z,56.25
2016-08-24T13:01:44.219Z,55.57
2016-08-24T13:02:44.202Z,55.76